createdAt,value
2022-08-14T00:02:04.271Z,39.39
2022-08-14T00:04:36.098Z,39.72
2022-08-14T00:07:10.560Z,39.37
2022-08-14T00:09:56.395Z,39.69
2022-08-14T00:12:33.237Z,39.54
2022-08-14T00:15:03.055Z,39.07
2022-08-14T00:17:30.046Z,38.95
2022-08-14T00:19:58.128Z,39.54
2022-08-14T00:22:56.874Z,39.79
2022-08-14T00:25:13.707Z,39.96
2022-08-14T00:27:42.410Z,40.02
2022-08-14T00:30:11.182Z,39.73
2022-08-14T00:32:55.889Z,40.35
2022-08-14T00:36:34.318Z,43.25
2022-08-14T00:38:10.785Z,43.71
2022-08-14T00:40:37.821Z,44.31
2022-08-14T00:43:06.268Z,43.75
2022-08-14T00:45:33.558Z,43.81
2022-08-14T00:48:00.434Z,44.18
2022-08-14T00:50:31.049Z,44.72
2022-08-14T00:53:04.136Z,45.11
2022-08-14T00:55:31.096Z,45.06
2022-08-14T00:58:18.353Z,44.18
2022-08-14T01:00:51.092Z,43.32
2022-08-14T01:03:20.132Z,43.13
2022-08-14T01:05:51.759Z,43.85
2022-08-14T01:08:57.768Z,44.17
2022-08-14T01:11:18.940Z,44.51
2022-08-14T01:13:50.822Z,43.58
2022-08-14T01:16:28.050Z,44.08
2022-08-14T01:19:15.949Z,43.86
2022-08-14T01:21:47.194Z,44.44
2022-08-14T01:24:23.026Z,44.23
2022-08-14T01:26:58.123Z,43.97
2022-08-14T01:29:58.247Z,43.97
2022-08-14T01:32:23.316Z,44.64
2022-08-14T01:35:17.568Z,44.54
2022-08-14T01:37:44.566Z,44.37
2022-08-14T01:40:15.531Z,44.77
2022-08-14T01:42:46.954Z,44.56
2022-08-14T01:45:25.179Z,44.19
2022-08-14T01:47:52.593Z,45.47
2022-08-14T01:50:30.772Z,45.47
2022-08-14T01:53:01.396Z,45.24
2022-08-14T01:55:31.364Z,45.37
2022-08-14T01:58:18.870Z,45.60
2022-08-14T02:00:48.206Z,45.96
2022-08-14T02:03:16.233Z,46.05
2022-08-14T02:05:43.365Z,46.00
2022-08-14T02:08:10.615Z,45.94
2022-08-14T02:10:47.362Z,45.68
2022-08-14T02:13:16.459Z,46.32
2022-08-14T02:15:45.784Z,46.60
2022-08-14T02:18:15.878Z,46.33
2022-08-14T02:20:42.755Z,46.54
2022-08-14T02:23:09.846Z,46.81
2022-08-14T02:25:39.467Z,46.75
2022-08-14T02:28:23.430Z,46.96
2022-08-14T02:30:55.294Z,46.96
2022-08-14T02:33:23.310Z,46.85
2022-08-14T02:35:53.539Z,47.90
2022-08-14T02:38:37.388Z,48.72
2022-08-14T02:41:08.931Z,49.31
2022-08-14T02:43:46.623Z,50.28
2022-08-14T02:46:20.475Z,50.68
2022-08-14T02:49:04.770Z,51.73
2022-08-14T02:51:36.539Z,52.62
2022-08-14T02:54:07.938Z,52.05
2022-08-14T02:57:16.656Z,52.31
2022-08-14T02:59:29.634Z,52.62
2022-08-14T03:02:01.298Z,52.23
2022-08-14T03:04:30.357Z,51.62
2022-08-14T03:07:07.600Z,53.14
2022-08-14T03:09:41.886Z,54.44
2022-08-14T03:12:30.955Z,56.31
2022-08-14T03:14:59.561Z,55.48
2022-08-14T03:17:26.953Z,56.36
2022-08-14T03:19:58.886Z,56.51
2022-08-14T03:22:27.803Z,58.13
2022-08-14T03:24:56.692Z,57.52
2022-08-14T03:27:26.373Z,56.86
2022-08-14T03:30:05.420Z,55.70
2022-08-14T03:32:33.491Z,55.68
2022-08-14T03:35:01.624Z,56.27
2022-08-14T03:37:55.861Z,56.41
2022-08-14T03:40:25.082Z,57.01
2022-08-14T03:42:52.198Z,56.94
2022-08-14T03:45:34.074Z,58.06
2022-08-14T03:48:30.673Z,57.24
2022-08-14T03:50:59.564Z,57.53
2022-08-14T03:53:28.325Z,57.27
2022-08-14T03:55:59.080Z,59.30
2022-08-14T03:58:36.589Z,59.99
2022-08-14T04:01:04.385Z,58.78
2022-08-14T04:03:34.484Z,58.72
2022-08-14T04:06:05.792Z,60.29
2022-08-14T04:08:37.891Z,61.74
2022-08-14T04:11:08.074Z,60.90
2022-08-14T04:13:41.053Z,57.00
2022-08-14T04:16:15.515Z,52.95
2022-08-14T04:18:43.906Z,53.51
2022-08-14T04:21:11.939Z,54.52
2022-08-14T04:23:39.616Z,54.00
2022-08-14T04:26:14.295Z,54.77
2022-08-14T04:29:01.578Z,54.90
2022-08-14T04:33:00.794Z,55.03
2022-08-14T04:34:24.116Z,55.70
2022-08-14T04:37:22.419Z,55.28
2022-08-14T04:40:11.340Z,55.15
2022-08-14T04:42:56.898Z,58.48
2022-08-14T04:45:24.898Z,54.84
2022-08-14T04:48:11.209Z,54.97
2022-08-14T04:50:43.783Z,54.73
2022-08-14T04:53:14.882Z,55.27
2022-08-14T04:55:46.020Z,55.52
2022-08-14T04:58:32.674Z,55.69
2022-08-14T05:01:01.573Z,55.53
2022-08-14T05:03:32.020Z,55.36
2022-08-14T05:06:00.715Z,56.12
2022-08-14T05:08:32.430Z,59.00
2022-08-14T05:11:15.587Z,59.92
2022-08-14T05:14:16.949Z,60.53
2022-08-14T05:16:31.803Z,57.70
2022-08-14T05:19:18.304Z,56.82
2022-08-14T05:21:59.411Z,56.24
2022-08-14T05:24:28.577Z,55.19
2022-08-14T05:26:56.264Z,55.41
2022-08-14T05:29:23.459Z,55.50
2022-08-14T05:31:50.579Z,55.20
2022-08-14T05:34:28.937Z,54.80
2022-08-14T05:37:01.890Z,53.07
2022-08-14T05:39:31.057Z,53.94
2022-08-14T05:41:59.080Z,54.71
2022-08-14T05:44:30.173Z,54.89
2022-08-14T05:46:58.656Z,54.29
2022-08-14T05:49:33.017Z,53.48
2022-08-14T05:52:02.195Z,54.63
2022-08-14T05:54:35.654Z,53.62
2022-08-14T05:57:04.808Z,49.06
2022-08-14T05:59:39.030Z,44.04
2022-08-14T06:02:11.221Z,41.30
2022-08-14T06:04:39.546Z,38.02
2022-08-14T06:07:06.851Z,35.72
2022-08-14T06:09:35.372Z,33.95
2022-08-14T06:12:03.396Z,32.66
2022-08-14T06:14:31.509Z,31.73
2022-08-14T06:16:59.349Z,30.66
2022-08-14T06:19:26.451Z,29.36
2022-08-14T06:21:58.896Z,27.98
2022-08-14T06:24:30.617Z,28.67
2022-08-14T06:27:04.397Z,27.77
2022-08-14T06:29:34.713Z,27.96
2022-08-14T06:32:36.526Z,27.16
2022-08-14T06:35:10.863Z,26.28
2022-08-14T06:38:00.096Z,26.51
2022-08-14T06:40:37.215Z,27.71
2022-08-14T06:43:11.693Z,27.76
2022-08-14T06:45:50.244Z,26.50
2022-08-14T06:48:27.346Z,27.16
2022-08-14T06:50:55.486Z,27.30
2022-08-14T06:53:28.044Z,26.26
2022-08-14T06:55:59.529Z,27.06
2022-08-14T06:58:30.745Z,27.07
2022-08-14T07:01:26.869Z,27.96
2022-08-14T07:04:22.824Z,27.54
2022-08-14T07:06:51.946Z,28.23
2022-08-14T07:09:25.805Z,28.40
2022-08-14T07:11:54.987Z,28.24
2022-08-14T07:14:23.138Z,29.90
2022-08-14T07:16:50.039Z,29.40
2022-08-14T07:19:18.064Z,29.62
2022-08-14T07:21:48.367Z,29.70
2022-08-14T07:24:21.815Z,29.85
2022-08-14T07:26:53.609Z,30.07
2022-08-14T07:29:25.993Z,30.08
2022-08-14T07:31:53.552Z,30.49
2022-08-14T07:34:35.929Z,31.06
2022-08-14T07:37:07.395Z,32.39
2022-08-14T07:39:37.035Z,32.74
2022-08-14T07:42:08.850Z,33.44
2022-08-14T07:44:46.579Z,33.78
2022-08-14T07:47:16.784Z,33.86
2022-08-14T07:50:13.062Z,33.68
2022-08-14T07:52:45.063Z,33.11
2022-08-14T07:55:14.393Z,32.02
2022-08-14T07:57:48.131Z,32.94
2022-08-14T08:00:30.191Z,32.54
2022-08-14T08:03:00.336Z,33.29
2022-08-14T08:05:28.077Z,33.66
2022-08-14T08:07:55.225Z,32.08
2022-08-14T08:11:02.006Z,32.76
2022-08-14T08:13:23.911Z,33.35
2022-08-14T08:15:57.474Z,33.61
2022-08-14T08:18:29.224Z,33.55
2022-08-14T08:20:59.207Z,33.92
2022-08-14T08:23:40.803Z,34.46
2022-08-14T08:26:16.401Z,33.92
2022-08-14T08:28:44.415Z,33.84
2022-08-14T08:31:12.809Z,33.58
2022-08-14T08:33:42.674Z,33.54
2022-08-14T08:36:12.744Z,34.10
2022-08-14T08:39:18.342Z,33.40
2022-08-14T08:41:28.050Z,33.16
2022-08-14T08:44:05.497Z,32.86
2022-08-14T08:46:33.235Z,32.87
2022-08-14T08:51:34.640Z,32.94
2022-08-14T08:54:15.001Z,33.26
2022-08-14T08:56:47.890Z,33.10
2022-08-14T08:59:31.114Z,33.26
2022-08-14T09:02:00.643Z,32.67
2022-08-14T09:04:45.292Z,32.37
2022-08-14T09:07:27.021Z,33.31
2022-08-14T09:09:58.580Z,32.58
2022-08-14T09:12:32.515Z,32.66
2022-08-14T09:15:12.154Z,32.31
2022-08-14T09:17:42.350Z,32.55
2022-08-14T09:20:11.671Z,32.29
2022-08-14T09:22:42.500Z,32.24
2022-08-14T09:25:15.892Z,32.29
2022-08-14T09:27:43.850Z,32.28
2022-08-14T09:30:31.074Z,31.97
2022-08-14T09:33:12.504Z,32.60
2022-08-14T09:35:58.160Z,32.61
2022-08-14T09:38:43.678Z,31.76
2022-08-14T09:42:21.796Z,32.46
2022-08-14T09:44:46.075Z,32.86
2022-08-14T09:47:16.991Z,31.96
2022-08-14T09:49:53.018Z,31.94
2022-08-14T09:52:33.335Z,33.21
2022-08-14T09:55:01.150Z,32.22
2022-08-14T09:57:31.700Z,32.19
2022-08-14T09:59:59.480Z,31.11
2022-08-14T10:02:30.046Z,30.08
2022-08-14T10:05:01.245Z,29.50
2022-08-14T10:07:35.640Z,30.59
2022-08-14T10:10:23.099Z,31.83
2022-08-14T10:12:58.225Z,31.56
2022-08-14T10:15:30.295Z,31.26
2022-08-14T10:18:17.408Z,30.55
2022-08-14T10:20:55.403Z,30.01
2022-08-14T10:23:24.949Z,29.31
2022-08-14T10:26:06.558Z,29.76
2022-08-14T10:29:03.799Z,28.95
2022-08-14T10:31:44.797Z,30.22
2022-08-14T10:34:14.073Z,30.35
2022-08-14T10:36:50.159Z,28.56
2022-08-14T10:39:25.871Z,28.80
2022-08-14T10:42:16.558Z,28.39
2022-08-14T10:44:48.877Z,28.67
2022-08-14T10:47:39.675Z,27.37
2022-08-14T10:50:06.506Z,29.24
2022-08-14T10:52:35.776Z,28.81
2022-08-14T10:55:14.190Z,28.34
2022-08-14T10:57:54.617Z,26.97
2022-08-14T11:00:35.029Z,26.41
2022-08-14T11:03:11.101Z,25.26
2022-08-14T11:05:56.310Z,26.78
2022-08-14T11:08:33.435Z,26.61
2022-08-14T11:11:03.901Z,26.02
2022-08-14T11:13:31.488Z,26.04
2022-08-14T11:16:00.629Z,25.79
2022-08-14T11:18:32.396Z,26.79
2022-08-14T11:21:08.313Z,26.14
2022-08-14T11:23:41.208Z,26.93
2022-08-14T11:26:16.518Z,26.20
2022-08-14T11:28:47.461Z,25.88
2022-08-14T11:31:19.010Z,26.22
2022-08-14T11:33:49.688Z,26.31
2022-08-14T11:36:18.034Z,27.13
2022-08-14T11:38:46.334Z,25.90
2022-08-14T11:41:17.308Z,25.53
2022-08-14T11:43:57.689Z,25.27
2022-08-14T11:46:37.538Z,25.63
2022-08-14T11:49:15.971Z,25.43
2022-08-14T11:51:55.910Z,25.42
2022-08-14T11:54:33.672Z,24.84
2022-08-14T11:57:05.257Z,25.15
2022-08-14T11:59:35.163Z,24.32
2022-08-14T12:02:39.050Z,24.64
2022-08-14T12:05:09.341Z,24.70
2022-08-14T12:07:49.415Z,25.21
2022-08-14T12:10:26.094Z,24.73
2022-08-14T12:13:19.279Z,24.39
2022-08-14T12:16:06.259Z,23.96
2022-08-14T12:21:29.439Z,24.65
2022-08-14T12:24:08.960Z,24.93
2022-08-14T12:26:57.830Z,25.30
2022-08-14T12:29:26.425Z,25.61
2022-08-14T12:32:04.208Z,26.16
2022-08-14T12:34:37.887Z,26.62
2022-08-14T12:37:09.145Z,26.09
2022-08-14T12:39:39.573Z,25.40
2022-08-14T12:42:08.355Z,25.99
2022-08-14T12:44:43.996Z,25.69
2022-08-14T12:47:15.944Z,25.97
2022-08-14T12:49:54.237Z,26.07
2022-08-14T12:52:43.197Z,25.73
2022-08-14T12:55:22.684Z,26.06
2022-08-14T12:58:02.443Z,25.66
2022-08-14T13:01:12.639Z,25.38
2022-08-14T13:03:39.713Z,26.39
2022-08-14T13:06:07.478Z,26.94
2022-08-14T13:08:37.657Z,26.11
2022-08-14T13:11:14.536Z,25.73
2022-08-14T13:13:44.762Z,25.69
2022-08-14T13:16:20.633Z,26.05
2022-08-14T13:19:01.994Z,26.25
2022-08-14T13:21:29.891Z,26.88
2022-08-14T13:24:19.828Z,26.24
2022-08-14T13:26:53.266Z,25.73
2022-08-14T13:29:25.887Z,25.91
2022-08-14T13:31:58.320Z,26.11
2022-08-14T13:34:27.465Z,25.78
2022-08-14T13:36:59.357Z,26.22
2022-08-14T13:39:36.327Z,25.48
2022-08-14T13:42:13.268Z,25.73
2022-08-14T13:44:42.877Z,25.71
2022-08-14T13:47:12.162Z,25.44
2022-08-14T13:49:57.843Z,25.28
2022-08-14T13:52:52.176Z,25.77
2022-08-14T13:55:15.991Z,26.37
2022-08-14T13:57:49.451Z,25.71
2022-08-14T14:00:32.736Z,26.12
2022-08-14T14:03:00.234Z,25.00
2022-08-14T14:05:53.833Z,25.53
2022-08-14T14:08:19.099Z,25.16
2022-08-14T14:11:02.853Z,25.08
2022-08-14T14:13:31.898Z,25.24
2022-08-14T14:16:03.883Z,25.96
2022-08-14T14:18:34.800Z,25.15
2022-08-14T14:21:03.449Z,26.05
2022-08-14T14:23:31.236Z,24.76
2022-08-14T14:25:59.353Z,24.30
2022-08-14T14:28:34.088Z,24.92
2022-08-14T14:31:06.664Z,24.99
2022-08-14T14:33:52.371Z,25.31
2022-08-14T14:36:26.748Z,25.13
2022-08-14T14:39:01.337Z,23.96
2022-08-14T14:41:37.917Z,25.50
2022-08-14T14:44:15.526Z,25.14
2022-08-14T14:46:44.720Z,25.87
2022-08-14T14:49:14.394Z,25.14
2022-08-14T14:51:46.737Z,25.33
2022-08-14T14:54:30.976Z,25.31
2022-08-14T14:57:02.303Z,25.16
2022-08-14T14:59:33.441Z,25.11
2022-08-14T15:02:06.388Z,26.49
2022-08-14T15:04:43.628Z,26.24
2022-08-14T15:07:12.490Z,25.20
2022-08-14T15:09:39.751Z,24.64
2022-08-14T15:12:35.003Z,25.13
2022-08-14T15:14:58.168Z,25.86
2022-08-14T15:17:41.064Z,25.55
2022-08-14T15:20:10.598Z,25.82
2022-08-14T15:22:51.104Z,25.41
2022-08-14T15:25:18.957Z,25.45
2022-08-14T15:27:46.055Z,26.08
2022-08-14T15:30:23.758Z,26.24
2022-08-14T15:32:51.859Z,26.13
2022-08-14T15:35:24.048Z,25.63
2022-08-14T15:37:55.952Z,26.61
2022-08-14T15:40:23.720Z,26.20
2022-08-14T15:42:58.395Z,26.28
2022-08-14T15:45:25.174Z,25.73
2022-08-14T15:47:53.770Z,25.34
2022-08-14T15:50:20.780Z,25.28
2022-08-14T15:52:50.551Z,26.36
2022-08-14T15:55:18.279Z,25.26
2022-08-14T15:58:01.689Z,26.96
2022-08-14T16:00:54.110Z,25.79
2022-08-14T16:03:27.226Z,26.37
2022-08-14T16:06:03.181Z,26.69
2022-08-14T16:08:30.829Z,26.04
2022-08-14T16:11:05.441Z,26.25
2022-08-14T16:13:42.485Z,26.23
2022-08-14T16:16:47.658Z,26.26
2022-08-14T16:22:32.697Z,25.74
2022-08-14T16:25:00.495Z,26.57
2022-08-14T16:27:33.625Z,26.37
2022-08-14T16:30:01.491Z,25.95
2022-08-14T16:32:36.230Z,26.98
2022-08-14T16:35:19.022Z,26.31
2022-08-14T16:37:46.015Z,26.73
2022-08-14T16:40:13.653Z,26.13
2022-08-14T16:40:23.811Z,25.84
2022-08-14T16:43:04.197Z,26.99
2022-08-14T16:45:31.175Z,26.79
2022-08-14T16:48:00.580Z,27.40
2022-08-14T16:50:40.358Z,28.23
2022-08-14T16:53:10.878Z,28.94
2022-08-14T16:55:51.119Z,28.70
2022-08-14T16:58:26.551Z,29.04
2022-08-14T17:01:24.690Z,29.50
2022-08-14T17:04:14.861Z,29.79
2022-08-14T17:06:53.982Z,30.11
2022-08-14T17:09:48.981Z,29.97
2022-08-14T17:12:33.582Z,30.01
2022-08-14T17:15:09.870Z,29.75
2022-08-14T17:17:40.654Z,29.37
2022-08-14T17:20:39.391Z,30.56
2022-08-14T17:23:11.125Z,29.94
2022-08-14T17:25:38.332Z,30.65
2022-08-14T17:28:51.943Z,30.23
2022-08-14T17:31:05.748Z,30.63
2022-08-14T17:33:40.450Z,30.29
2022-08-14T17:36:20.992Z,31.19
2022-08-14T17:39:06.420Z,30.52
2022-08-14T17:42:02.847Z,31.05
2022-08-14T17:44:44.864Z,31.11
2022-08-14T17:47:14.728Z,31.04
2022-08-14T17:49:51.688Z,31.06
2022-08-14T17:52:36.365Z,31.18
2022-08-14T17:55:12.480Z,31.65
2022-08-14T17:57:58.950Z,32.01
2022-08-14T18:00:26.316Z,31.41
2022-08-14T18:02:54.365Z,31.86
2022-08-14T18:06:08.394Z,31.80
2022-08-14T18:08:33.629Z,32.22
2022-08-14T18:10:58.002Z,32.21
2022-08-14T18:13:50.962Z,32.35
2022-08-14T18:16:19.614Z,32.17
2022-08-14T18:18:48.560Z,31.91
2022-08-14T18:21:42.734Z,32.16
2022-08-14T18:24:03.628Z,33.12
2022-08-14T18:26:36.301Z,32.14
2022-08-14T18:29:11.184Z,32.91
2022-08-14T18:31:44.081Z,33.32
2022-08-14T18:34:31.971Z,33.15
2022-08-14T18:37:13.856Z,33.31
2022-08-14T18:40:01.186Z,33.40
2022-08-14T18:42:34.772Z,33.88
2022-08-14T18:45:02.032Z,33.59
2022-08-14T18:48:06.484Z,33.67
2022-08-14T18:50:31.182Z,33.97
2022-08-14T18:53:09.043Z,34.04
2022-08-14T18:55:53.301Z,34.72
2022-08-14T18:58:31.163Z,34.91
2022-08-14T19:01:01.359Z,34.90
2022-08-14T19:03:34.165Z,34.74
2022-08-14T19:06:08.862Z,34.65
2022-08-14T19:08:42.881Z,34.86
2022-08-14T19:11:34.303Z,35.40
2022-08-14T19:14:04.795Z,35.14
2022-08-14T19:16:35.121Z,34.47
2022-08-14T19:19:06.881Z,35.27
2022-08-14T19:21:40.930Z,34.58
2022-08-14T19:24:29.891Z,34.93
2022-08-14T19:27:23.675Z,34.90
2022-08-14T19:29:53.621Z,35.13
2022-08-14T19:32:36.797Z,35.21
2022-08-14T19:35:16.694Z,34.90
2022-08-14T19:37:52.064Z,35.15
2022-08-14T19:40:28.733Z,35.49
2022-08-14T19:42:58.341Z,35.16
2022-08-14T19:45:26.949Z,35.84
2022-08-14T19:47:53.970Z,35.25
2022-08-14T19:50:41.021Z,35.73
2022-08-14T19:53:17.754Z,35.27
2022-08-14T19:56:00.692Z,35.67
2022-08-14T19:58:54.785Z,36.28
2022-08-14T20:01:36.374Z,37.03
2022-08-14T20:04:45.193Z,37.50
2022-08-14T20:07:01.642Z,39.08
2022-08-14T20:11:05.839Z,38.99
2022-08-14T20:12:36.473Z,37.01
2022-08-14T20:15:46.803Z,37.15
2022-08-14T20:18:45.995Z,37.08
2022-08-14T20:21:05.221Z,37.17
2022-08-14T20:23:38.134Z,36.66
2022-08-14T20:26:31.831Z,37.25
2022-08-14T20:29:07.104Z,37.47
2022-08-14T20:31:44.231Z,36.82
2022-08-14T20:34:16.021Z,37.65
2022-08-14T20:37:22.733Z,37.53
2022-08-14T20:39:54.749Z,37.16
2022-08-14T20:42:43.609Z,37.51
2022-08-14T20:45:29.192Z,37.93
2022-08-14T20:48:07.364Z,37.05
2022-08-14T20:50:36.743Z,36.72
2022-08-14T20:53:29.365Z,37.04
2022-08-14T20:56:28.493Z,37.14
2022-08-14T20:58:52.334Z,36.88
2022-08-14T21:01:19.211Z,36.49
2022-08-14T21:03:56.673Z,36.63
2022-08-14T21:07:23.985Z,36.83
2022-08-14T21:10:03.201Z,36.88
2022-08-14T21:12:34.757Z,37.06
2022-08-14T21:15:11.084Z,37.55
2022-08-14T21:17:43.052Z,36.67
2022-08-14T21:20:26.147Z,37.08
2022-08-14T21:22:56.598Z,36.79
2022-08-14T21:25:34.090Z,37.32
2022-08-14T21:28:05.932Z,38.04
2022-08-14T21:30:51.581Z,37.95
2022-08-14T21:33:21.495Z,38.28
2022-08-14T21:35:55.524Z,38.07
2022-08-14T21:38:33.511Z,38.63
2022-08-14T21:41:43.312Z,38.29
2022-08-14T21:44:17.942Z,38.96
2022-08-14T21:46:54.231Z,38.58
2022-08-14T21:49:25.656Z,38.73
2022-08-14T21:52:51.141Z,39.35
2022-08-14T21:54:54.562Z,39.66
2022-08-14T21:57:56.466Z,39.85
2022-08-14T22:00:31.600Z,39.35
2022-08-14T22:03:05.638Z,39.70
2022-08-14T22:05:33.607Z,39.86
2022-08-14T22:08:04.246Z,40.28
2022-08-14T22:10:41.102Z,40.01
2022-08-14T22:13:11.653Z,40.72
2022-08-14T22:15:43.868Z,41.50
2022-08-14T22:18:19.837Z,42.83
2022-08-14T22:20:58.541Z,43.89
2022-08-14T22:23:38.718Z,44.73
2022-08-14T22:26:09.141Z,46.46
2022-08-14T22:28:36.172Z,46.95
2022-08-14T22:31:10.489Z,46.96
2022-08-14T22:33:39.874Z,47.53
2022-08-14T22:36:26.326Z,49.24
2022-08-14T22:38:57.281Z,48.89
2022-08-14T22:41:28.349Z,48.20
2022-08-14T22:44:04.469Z,47.57
2022-08-14T22:46:33.893Z,46.01
2022-08-14T22:49:16.134Z,46.11
2022-08-14T22:51:55.309Z,47.59
2022-08-14T22:54:52.679Z,45.78
2022-08-14T22:57:13.742Z,45.70
2022-08-14T22:59:44.857Z,45.28
2022-08-14T23:02:30.369Z,45.27
2022-08-14T23:05:07.570Z,45.62
2022-08-14T23:08:56.293Z,45.65
2022-08-14T23:10:31.715Z,45.75
2022-08-14T23:13:01.339Z,45.96
2022-08-14T23:15:29.880Z,46.05
2022-08-14T23:17:57.531Z,44.79
2022-08-14T23:20:29.390Z,45.43
2022-08-14T23:22:57.479Z,44.31
2022-08-14T23:25:57.871Z,44.63
2022-08-14T23:28:33.495Z,45.27
2022-08-14T23:31:02.953Z,45.95
2022-08-14T23:33:34.287Z,45.58
2022-08-14T23:36:03.277Z,45.60
2022-08-14T23:38:31.494Z,45.85
2022-08-14T23:41:04.110Z,46.44
2022-08-14T23:43:31.703Z,44.83
2022-08-14T23:45:59.666Z,45.03
2022-08-14T23:48:28.408Z,44.79
2022-08-14T23:50:55.723Z,45.82
2022-08-14T23:53:47.768Z,46.26
2022-08-14T23:56:18.976Z,46.80
2022-08-14T23:58:49.160Z,46.54
